createdAt,value
2018-05-16T00:00:16.750Z,10.20
2018-05-16T00:01:19.284Z,13.07
2018-05-16T00:02:21.847Z,11.70
2018-05-16T00:03:25.142Z,10.73
2018-05-16T00:04:27.690Z,10.00
2018-05-16T00:05:30.975Z,10.18
2018-05-16T00:06:34.267Z,10.95
2018-05-16T00:07:36.832Z,10.57
2018-05-16T00:08:39.367Z,12.63
2018-05-16T00:09:41.892Z,14.13
2018-05-16T00:10:44.472Z,13.23
2018-05-16T00:11:46.999Z,10.07
2018-05-16T00:12:49.530Z,14.48
2018-05-16T00:13:52.055Z,16.62
2018-05-16T00:14:54.589Z,10.85
2018-05-16T00:15:57.911Z,12.82
2018-05-16T00:17:00.436Z,9.05
2018-05-16T00:18:03.782Z,9.70
2018-05-16T00:19:06.311Z,10.13
2018-05-16T00:20:08.835Z,14.15
2018-05-16T00:21:11.392Z,10.95
2018-05-16T00:22:13.916Z,10.38
2018-05-16T00:23:16.444Z,9.93
2018-05-16T00:24:19.719Z,9.70
2018-05-16T00:25:22.237Z,14.65
2018-05-16T00:26:24.808Z,11.88
2018-05-16T00:27:27.345Z,11.20
2018-05-16T00:28:29.868Z,10.85
2018-05-16T00:29:32.389Z,11.38
2018-05-16T00:30:34.911Z,10.20
2018-05-16T00:31:37.474Z,9.18
2018-05-16T00:32:39.996Z,9.85
2018-05-16T00:33:42.524Z,11.05
2018-05-16T00:34:45.860Z,9.65
2018-05-16T00:35:48.397Z,10.40
2018-05-16T00:36:50.923Z,10.13
2018-05-16T00:37:53.453Z,10.07
2018-05-16T00:38:55.983Z,9.45
2018-05-16T00:39:59.332Z,14.30
2018-05-16T00:41:01.880Z,12.23
2018-05-16T00:42:04.412Z,9.45
2018-05-16T00:43:06.927Z,9.93
2018-05-16T00:44:09.450Z,9.43
2018-05-16T00:45:12.016Z,14.30
2018-05-16T00:46:14.527Z,9.68
2018-05-16T00:47:17.049Z,9.52
2018-05-16T00:48:19.580Z,10.60
2018-05-16T00:49:22.105Z,8.20
2018-05-16T00:50:24.660Z,9.15
2018-05-16T00:51:31.618Z,14.90
2018-05-16T00:52:34.134Z,8.90
2018-05-16T00:53:36.684Z,9.40
2018-05-16T00:54:39.203Z,8.40
2018-05-16T00:55:41.752Z,9.98
2018-05-16T00:56:45.067Z,9.73
2018-05-16T00:57:47.641Z,11.95
2018-05-16T00:58:50.174Z,14.05
2018-05-16T00:59:53.467Z,12.25
2018-05-16T01:00:55.996Z,11.38
2018-05-16T01:01:58.516Z,9.27
2018-05-16T01:03:01.082Z,10.50
2018-05-16T01:04:03.601Z,11.77
2018-05-16T01:05:06.121Z,12.95
2018-05-16T01:06:08.659Z,9.77
2018-05-16T01:07:11.981Z,9.40
2018-05-16T01:08:14.539Z,13.57
2018-05-16T01:09:17.857Z,13.95
2018-05-16T01:10:20.381Z,12.45
2018-05-16T01:11:22.913Z,10.90
2018-05-16T01:12:26.200Z,10.85
2018-05-16T01:13:29.516Z,12.88
2018-05-16T01:14:32.066Z,12.13
2018-05-16T01:15:34.639Z,13.45
2018-05-16T01:16:37.175Z,13.15
2018-05-16T01:17:39.707Z,16.35
2018-05-16T01:18:42.246Z,11.90
2018-05-16T01:19:44.780Z,14.18
2018-05-16T01:20:48.120Z,14.70
2018-05-16T01:21:50.655Z,13.23
2018-05-16T01:22:53.220Z,13.62
2018-05-16T01:23:55.747Z,13.05
2018-05-16T01:24:58.275Z,15.25
2018-05-16T01:26:00.808Z,15.73
2018-05-16T01:27:04.101Z,16.92
2018-05-16T01:28:06.668Z,13.57
2018-05-16T01:29:09.201Z,17.00
2018-05-16T01:30:11.743Z,18.62
2018-05-16T01:31:14.307Z,14.02
2018-05-16T01:32:16.829Z,13.75
2018-05-16T01:33:19.360Z,13.60
2018-05-16T01:34:21.927Z,14.50
2018-05-16T01:35:24.452Z,14.63
2018-05-16T01:36:26.975Z,17.30
2018-05-16T01:37:30.271Z,13.48
2018-05-16T01:38:33.608Z,16.10
2018-05-16T01:39:36.163Z,15.55
2018-05-16T01:40:38.677Z,13.62
2018-05-16T01:41:41.973Z,15.18
2018-05-16T01:42:45.308Z,13.45
2018-05-16T01:43:47.841Z,14.63
2018-05-16T01:44:50.365Z,16.30
2018-05-16T01:45:52.887Z,14.43
2018-05-16T01:46:55.427Z,16.35
2018-05-16T01:47:57.996Z,14.45
2018-05-16T01:49:12.366Z,15.77
2018-05-16T01:50:14.938Z,14.57
2018-05-16T01:51:17.496Z,15.70
2018-05-16T01:52:20.056Z,21.98
2018-05-16T01:53:23.355Z,13.77
2018-05-16T01:54:25.907Z,20.10
2018-05-16T01:55:28.432Z,17.75
2018-05-16T01:56:31.733Z,21.17
2018-05-16T01:57:35.024Z,15.65
2018-05-16T01:58:37.552Z,16.25
2018-05-16T01:59:40.124Z,15.75
2018-05-16T02:00:42.654Z,15.40
2018-05-16T02:01:45.175Z,15.70
2018-05-16T02:02:48.468Z,15.98
2018-05-16T02:03:51.013Z,19.50
2018-05-16T02:04:53.580Z,15.13
2018-05-16T02:05:56.877Z,16.48
2018-05-16T02:06:59.400Z,16.75
2018-05-16T02:08:01.933Z,14.68
2018-05-16T02:09:04.470Z,12.98
2018-05-16T02:10:07.037Z,17.10
2018-05-16T02:11:10.366Z,13.68
2018-05-16T02:12:12.917Z,12.80
2018-05-16T02:13:15.447Z,14.25
2018-05-16T02:14:18.731Z,19.37
2018-05-16T02:15:22.056Z,14.70
2018-05-16T02:16:24.580Z,16.30
2018-05-16T02:17:27.882Z,15.68
2018-05-16T02:18:30.416Z,14.52
2018-05-16T02:19:32.989Z,12.93
2018-05-16T02:20:36.289Z,14.87
2018-05-16T02:21:39.592Z,14.18
2018-05-16T02:22:42.127Z,16.52
2018-05-16T02:23:44.666Z,13.43
2018-05-16T02:24:47.231Z,13.35
2018-05-16T02:25:49.757Z,14.23
2018-05-16T02:26:52.285Z,14.87
2018-05-16T02:27:54.847Z,14.68
2018-05-16T02:28:57.367Z,19.08
2018-05-16T02:29:59.910Z,14.80
2018-05-16T02:31:03.204Z,19.27
2018-05-16T02:32:05.766Z,14.38
2018-05-16T02:33:08.289Z,15.35
2018-05-16T02:34:10.820Z,16.45
2018-05-16T02:35:13.352Z,15.60
2018-05-16T02:36:16.651Z,17.00
2018-05-16T02:37:19.277Z,16.92
2018-05-16T02:38:21.770Z,15.50
2018-05-16T02:39:25.065Z,19.90
2018-05-16T02:40:27.595Z,19.87
2018-05-16T02:41:30.119Z,16.92
2018-05-16T02:42:32.699Z,16.70
2018-05-16T02:43:35.260Z,17.27
2018-05-16T02:44:37.771Z,16.08
2018-05-16T02:45:40.303Z,14.73
2018-05-16T02:46:42.832Z,15.95
2018-05-16T02:47:45.392Z,15.27
2018-05-16T02:48:47.928Z,15.80
2018-05-16T02:49:50.461Z,15.05
2018-05-16T02:50:52.994Z,18.10
2018-05-16T02:51:55.524Z,16.65
2018-05-16T02:52:58.100Z,18.73
2018-05-16T02:54:00.640Z,15.50
2018-05-16T02:55:03.169Z,17.90
2018-05-16T02:56:05.700Z,18.20
2018-05-16T02:57:08.997Z,17.10
2018-05-16T02:58:12.326Z,21.58
2018-05-16T02:59:14.892Z,19.15
2018-05-16T03:00:17.425Z,17.25
2018-05-16T03:01:19.959Z,17.08
2018-05-16T03:02:22.520Z,17.33
2018-05-16T03:03:25.048Z,18.62
2018-05-16T03:04:27.579Z,17.23
2018-05-16T03:05:30.904Z,17.83
2018-05-16T03:06:33.431Z,23.40
2018-05-16T03:07:36.717Z,19.67
2018-05-16T03:08:40.014Z,19.35
2018-05-16T03:09:42.591Z,18.92
2018-05-16T03:10:45.136Z,17.50
2018-05-16T03:11:47.670Z,19.98
2018-05-16T03:12:50.197Z,18.02
2018-05-16T03:13:52.731Z,19.12
2018-05-16T03:14:56.057Z,21.23
2018-05-16T03:15:58.628Z,17.62
2018-05-16T03:17:01.154Z,22.98
2018-05-16T03:18:04.453Z,19.15
2018-05-16T03:19:06.981Z,22.85
2018-05-16T03:20:09.515Z,19.35
2018-05-16T03:21:12.101Z,23.17
2018-05-16T03:22:14.637Z,24.65
2018-05-16T03:23:17.171Z,25.83
2018-05-16T03:24:19.703Z,21.50
2018-05-16T03:25:22.220Z,19.87
2018-05-16T03:26:24.818Z,27.20
2018-05-16T03:27:27.345Z,25.12
2018-05-16T03:28:29.909Z,23.00
2018-05-16T03:29:32.431Z,28.23
2018-05-16T03:30:34.960Z,25.98
2018-05-16T03:31:37.491Z,24.60
2018-05-16T03:32:40.783Z,30.58
2018-05-16T03:33:44.109Z,31.08
2018-05-16T03:34:46.637Z,32.17
2018-05-16T03:35:49.167Z,27.48
2018-05-16T03:36:51.723Z,29.08
2018-05-16T03:37:55.753Z,27.65
2018-05-16T03:38:59.094Z,28.85
2018-05-16T03:40:01.621Z,28.08
2018-05-16T03:41:04.151Z,34.70
2018-05-16T03:42:06.672Z,27.52
2018-05-16T03:43:09.204Z,27.23
2018-05-16T03:44:12.540Z,27.27
2018-05-16T03:45:15.069Z,26.90
2018-05-16T03:46:17.619Z,27.90
2018-05-16T03:47:20.912Z,35.10
2018-05-16T03:48:24.208Z,30.30
2018-05-16T03:49:26.776Z,30.95
2018-05-16T03:50:29.294Z,30.77
2018-05-16T03:51:31.825Z,33.38
2018-05-16T03:52:34.356Z,30.30
2018-05-16T03:53:37.645Z,30.05
2018-05-16T03:54:40.978Z,29.48
2018-05-16T03:55:43.506Z,44.65
2018-05-16T03:56:46.040Z,27.33
2018-05-16T03:59:43.958Z,31.60
2018-05-16T04:00:58.155Z,28.52
2018-05-16T04:02:12.689Z,27.25
2018-05-16T04:03:26.729Z,30.80
2018-05-16T04:04:29.255Z,26.12
2018-05-16T04:05:31.824Z,29.15
2018-05-16T04:06:34.352Z,25.33
2018-05-16T04:07:37.636Z,27.02
2018-05-16T04:08:40.919Z,28.25
2018-05-16T04:09:44.206Z,29.37
2018-05-16T04:10:47.557Z,26.48
2018-05-16T04:11:50.087Z,26.52
2018-05-16T04:12:52.621Z,27.83
2018-05-16T04:13:55.161Z,31.30
2018-05-16T04:14:57.816Z,29.55
2018-05-16T04:16:00.392Z,30.08
2018-05-16T04:17:02.951Z,29.17
2018-05-16T04:18:05.480Z,33.03
2018-05-16T04:19:08.003Z,36.92
2018-05-16T04:20:10.532Z,35.53
2018-05-16T04:21:13.113Z,28.87
2018-05-16T04:22:15.639Z,32.35
2018-05-16T04:23:18.184Z,33.60
2018-05-16T04:24:21.478Z,36.88
2018-05-16T04:25:24.003Z,33.67
2018-05-16T04:26:26.568Z,32.60
2018-05-16T04:27:29.108Z,35.10
2018-05-16T04:28:31.632Z,41.10
2018-05-16T04:29:34.919Z,38.53
2018-05-16T04:30:38.214Z,31.73
2018-05-16T04:31:40.777Z,38.58
2018-05-16T04:32:43.389Z,40.90
2018-05-16T04:33:46.619Z,40.55
2018-05-16T04:34:49.918Z,37.13
2018-05-16T04:35:52.447Z,38.22
2018-05-16T04:36:55.011Z,43.92
2018-05-16T04:37:57.534Z,36.05
2018-05-16T04:39:00.096Z,41.97
2018-05-16T04:40:02.627Z,40.45
2018-05-16T04:41:05.916Z,36.53
2018-05-16T04:42:08.456Z,36.92
2018-05-16T04:43:10.988Z,38.90
2018-05-16T04:44:13.543Z,40.58
2018-05-16T04:45:16.077Z,41.80
2018-05-16T04:46:19.371Z,44.47
2018-05-16T04:47:21.903Z,38.15
2018-05-16T04:48:24.437Z,39.25
2018-05-16T04:49:27.011Z,37.88
2018-05-16T04:50:29.536Z,38.40
2018-05-16T04:51:32.082Z,45.78
2018-05-16T04:52:35.416Z,42.53
2018-05-16T04:53:37.935Z,42.72
2018-05-16T04:54:40.456Z,40.10
2018-05-16T04:55:42.991Z,41.30
2018-05-16T04:56:45.533Z,35.85
2018-05-16T04:57:48.868Z,37.40
2018-05-16T04:58:51.398Z,39.70
2018-05-16T04:59:53.932Z,37.63
2018-05-16T05:00:56.497Z,41.75
2018-05-16T05:01:59.044Z,39.40
2018-05-16T05:03:01.615Z,37.30
2018-05-16T05:04:04.188Z,39.42
2018-05-16T05:05:06.742Z,37.10
2018-05-16T05:06:09.300Z,36.97
2018-05-16T05:07:11.843Z,39.40
2018-05-16T05:08:14.400Z,32.30
2018-05-16T05:09:16.965Z,40.17
2018-05-16T05:10:19.519Z,38.03
2018-05-16T05:11:22.815Z,36.75
2018-05-16T05:12:25.347Z,33.97
2018-05-16T05:13:27.863Z,38.10
2018-05-16T05:14:30.424Z,40.08
2018-05-16T05:15:32.944Z,35.30
2018-05-16T05:16:35.495Z,33.70
2018-05-16T05:17:38.033Z,32.80
2018-05-16T05:18:40.612Z,33.92
2018-05-16T05:19:43.135Z,31.55
2018-05-16T05:20:46.432Z,31.87
2018-05-16T05:21:49.003Z,35.25
2018-05-16T05:22:51.567Z,30.80
2018-05-16T05:23:54.153Z,32.50
2018-05-16T05:24:57.420Z,39.50
2018-05-16T05:25:59.959Z,31.23
2018-05-16T05:27:03.270Z,32.28
2018-05-16T05:28:05.833Z,35.45
2018-05-16T05:29:08.403Z,40.47
2018-05-16T05:30:10.946Z,40.53
2018-05-16T05:31:14.245Z,38.08
2018-05-16T05:32:17.539Z,36.97
2018-05-16T05:33:20.068Z,45.00
2018-05-16T05:34:22.634Z,36.65
2018-05-16T05:35:25.163Z,33.97
2018-05-16T05:36:27.696Z,33.13
2018-05-16T05:37:30.230Z,31.30
2018-05-16T05:38:32.792Z,33.25
2018-05-16T05:39:35.311Z,41.83
2018-05-16T05:40:37.877Z,37.88
2018-05-16T05:41:40.400Z,36.15
2018-05-16T05:42:42.942Z,32.13
2018-05-16T05:43:45.505Z,35.22
2018-05-16T05:44:48.039Z,34.05
2018-05-16T05:45:50.564Z,40.33
2018-05-16T05:46:53.126Z,33.67
2018-05-16T05:47:55.659Z,44.08
2018-05-16T05:48:58.233Z,34.38
2018-05-16T05:50:00.756Z,41.03
2018-05-16T05:51:04.165Z,33.95
2018-05-16T05:52:06.729Z,41.10
2018-05-16T05:53:09.265Z,32.30
2018-05-16T05:54:12.559Z,33.58
2018-05-16T05:55:15.092Z,36.42
2018-05-16T05:56:17.651Z,35.75
2018-05-16T05:57:20.184Z,30.65
2018-05-16T05:58:22.708Z,35.33
2018-05-16T05:59:26.014Z,30.30
2018-05-16T06:00:28.549Z,34.78
2018-05-16T06:01:31.892Z,35.78
2018-05-16T06:02:34.416Z,33.47
2018-05-16T06:03:37.719Z,33.38
2018-05-16T06:04:40.239Z,33.22
2018-05-16T06:05:42.758Z,31.98
2018-05-16T06:06:45.335Z,33.85
2018-05-16T06:07:47.864Z,28.00
2018-05-16T06:08:51.157Z,34.85
2018-05-16T06:09:54.454Z,36.33
2018-05-16T06:10:56.984Z,34.90
2018-05-16T06:11:59.566Z,38.20
2018-05-16T06:13:02.865Z,31.23
2018-05-16T06:14:05.397Z,34.40
2018-05-16T06:15:07.928Z,34.72
2018-05-16T06:16:10.459Z,32.53
2018-05-16T06:17:13.029Z,32.25
2018-05-16T06:18:15.560Z,34.95
2018-05-16T06:19:18.092Z,31.42
2018-05-16T06:20:20.617Z,64.75
2018-05-16T06:21:23.918Z,26.55
2018-05-16T06:22:26.503Z,143.80
2018-05-16T06:23:29.115Z,32.22
2018-05-16T06:24:31.639Z,47.35
2018-05-16T06:25:34.176Z,63.65
2018-05-16T06:26:36.712Z,58.20
2018-05-16T06:27:39.237Z,91.63
2018-05-16T06:28:41.804Z,54.58
2018-05-16T06:29:44.343Z,63.15
2018-05-16T06:30:46.876Z,37.83
2018-05-16T06:31:49.443Z,36.03
2018-05-16T06:32:52.057Z,40.40
2018-05-16T06:33:54.517Z,33.60
2018-05-16T06:34:57.054Z,39.78
2018-05-16T06:36:00.339Z,38.45
2018-05-16T06:37:02.907Z,45.92
2018-05-16T06:38:06.198Z,40.35
2018-05-16T06:39:09.572Z,73.37
2018-05-16T06:40:12.079Z,101.97
2018-05-16T06:41:14.644Z,51.97
2018-05-16T06:42:17.168Z,42.25
2018-05-16T06:43:20.463Z,41.08
2018-05-16T06:44:23.034Z,49.40
2018-05-16T06:45:25.572Z,39.15
2018-05-16T06:46:28.113Z,38.13
2018-05-16T06:47:30.639Z,42.40
2018-05-16T06:48:33.181Z,45.12
2018-05-16T06:49:36.509Z,43.00
2018-05-16T06:50:39.044Z,40.85
2018-05-16T06:51:42.471Z,40.80
2018-05-16T06:52:45.005Z,38.88
2018-05-16T06:53:47.540Z,44.10
2018-05-16T06:54:50.106Z,42.05
2018-05-16T06:55:52.635Z,38.58
2018-05-16T06:56:55.168Z,41.10
2018-05-16T06:57:57.728Z,49.42
2018-05-16T06:59:01.024Z,39.97
2018-05-16T07:00:03.549Z,43.35
2018-05-16T07:01:06.073Z,42.55
2018-05-16T07:02:08.600Z,43.78
2018-05-16T07:03:11.925Z,48.90
2018-05-16T07:04:14.455Z,42.00
2018-05-16T07:05:17.744Z,41.88
2018-05-16T07:06:21.048Z,37.65
2018-05-16T07:07:23.581Z,45.45
2018-05-16T07:08:26.910Z,35.35
2018-05-16T07:09:29.487Z,39.42
2018-05-16T07:10:32.017Z,40.88
2018-05-16T07:11:35.312Z,43.15
2018-05-16T07:12:37.839Z,41.10
2018-05-16T07:13:40.369Z,46.70
2018-05-16T07:14:42.920Z,35.75
2018-05-16T07:15:45.446Z,39.72
2018-05-16T07:16:47.968Z,42.45
2018-05-16T07:17:50.502Z,44.05
2018-05-16T07:18:53.031Z,41.10
2018-05-16T07:19:55.604Z,47.05
2018-05-16T07:20:58.136Z,40.40
2018-05-16T07:22:00.660Z,41.75
2018-05-16T07:23:03.952Z,37.90
2018-05-16T07:24:06.515Z,36.80
2018-05-16T07:25:09.839Z,40.03
2018-05-16T07:26:12.360Z,42.00
2018-05-16T07:27:15.671Z,42.38
2018-05-16T07:28:18.195Z,34.55
2018-05-16T07:29:20.726Z,46.03
2018-05-16T07:30:23.287Z,36.50
2018-05-16T07:31:25.818Z,35.22
2018-05-16T07:32:28.385Z,37.00
2018-05-16T07:33:30.953Z,33.28
2018-05-16T07:34:33.489Z,34.80
2018-05-16T07:35:36.835Z,35.83
2018-05-16T07:36:39.377Z,32.05
2018-05-16T07:37:41.905Z,36.65
2018-05-16T07:38:44.435Z,38.00
2018-05-16T07:39:46.973Z,30.42
2018-05-16T07:40:49.532Z,34.13
2018-05-16T07:41:52.083Z,33.88
2018-05-16T07:42:55.415Z,40.88
2018-05-16T07:43:57.944Z,29.70
2018-05-16T07:45:00.513Z,31.27
2018-05-16T07:46:03.035Z,38.00
2018-05-16T07:47:05.579Z,30.50
2018-05-16T07:48:08.137Z,28.73
2018-05-16T07:49:10.672Z,44.00
2018-05-16T07:50:13.981Z,31.27
2018-05-16T07:51:16.613Z,31.08
2018-05-16T07:52:19.104Z,29.02
2018-05-16T07:53:21.671Z,30.37
2018-05-16T07:54:24.217Z,30.85
2018-05-16T07:55:27.525Z,32.00
2018-05-16T07:56:30.062Z,38.05
2018-05-16T07:57:33.356Z,39.45
2018-05-16T07:58:36.683Z,31.75
2018-05-16T07:59:39.206Z,33.22
2018-05-16T08:00:42.544Z,25.77
2018-05-16T08:01:45.072Z,33.20
2018-05-16T08:02:47.637Z,27.95
2018-05-16T08:03:50.189Z,30.83
2018-05-16T08:06:01.620Z,35.58
2018-05-16T08:07:04.165Z,34.97
2018-05-16T08:08:06.700Z,26.27
2018-05-16T08:09:10.030Z,31.87
2018-05-16T08:10:12.560Z,32.95
2018-05-16T08:11:15.149Z,28.62
2018-05-16T08:12:17.711Z,26.17
2018-05-16T08:13:20.229Z,28.73
2018-05-16T08:14:22.785Z,29.65
2018-05-16T08:15:25.327Z,29.58
2018-05-16T08:16:27.856Z,29.58
2018-05-16T08:17:31.144Z,31.42
2018-05-16T08:18:33.685Z,34.05
2018-05-16T08:19:36.311Z,27.62
2018-05-16T08:20:38.849Z,29.58
2018-05-16T08:21:41.467Z,26.62
2018-05-16T08:22:43.991Z,30.40
2018-05-16T08:23:46.525Z,26.80
2018-05-16T08:24:49.809Z,26.92
2018-05-16T08:25:53.196Z,25.92
2018-05-16T08:26:56.525Z,30.00
2018-05-16T08:27:59.048Z,33.30
2018-05-16T08:29:02.957Z,24.12
2018-05-16T08:30:06.248Z,27.05
2018-05-16T08:31:08.897Z,25.40
2018-05-16T08:32:12.239Z,27.00
2018-05-16T08:33:14.765Z,27.05
2018-05-16T08:34:18.074Z,28.98
2018-05-16T08:35:20.595Z,29.20
2018-05-16T08:36:23.910Z,29.48
2018-05-16T08:37:26.475Z,26.55
2018-05-16T08:38:28.996Z,25.55
2018-05-16T08:39:31.572Z,24.83
2018-05-16T08:40:34.103Z,25.73
2018-05-16T08:41:36.635Z,23.52
2018-05-16T08:42:39.179Z,25.52
2018-05-16T08:43:42.463Z,26.40
2018-05-16T08:44:45.795Z,29.30
2018-05-16T08:45:48.321Z,22.05
2018-05-16T08:46:51.612Z,30.02
2018-05-16T08:47:54.916Z,22.23
2018-05-16T08:48:57.448Z,24.52
2018-05-16T08:50:00.776Z,26.30
2018-05-16T08:51:03.340Z,25.60
2018-05-16T08:52:05.900Z,20.92
2018-05-16T08:53:08.426Z,21.35
2018-05-16T08:54:11.725Z,28.55
2018-05-16T08:55:15.055Z,23.17
2018-05-16T08:56:17.580Z,24.10
2018-05-16T08:57:20.885Z,22.85
2018-05-16T08:58:23.420Z,23.83
2018-05-16T08:59:26.722Z,20.27
2018-05-16T09:00:29.291Z,20.35
2018-05-16T09:01:31.840Z,27.02
2018-05-16T09:02:35.133Z,26.67
2018-05-16T09:03:38.431Z,21.23
2018-05-16T09:04:40.992Z,20.05
2018-05-16T09:05:43.516Z,25.15
2018-05-16T09:06:46.050Z,23.40
2018-05-16T09:07:48.628Z,23.85
2018-05-16T09:08:51.156Z,24.58
2018-05-16T09:09:53.694Z,21.87
2018-05-16T09:10:56.223Z,25.75
2018-05-16T09:11:58.768Z,26.23
2018-05-16T09:13:01.331Z,26.00
2018-05-16T09:14:03.855Z,26.08
2018-05-16T09:15:06.377Z,26.80
2018-05-16T09:16:08.911Z,33.30
2018-05-16T09:17:12.267Z,25.05
2018-05-16T09:18:14.804Z,21.50
2018-05-16T09:19:17.395Z,24.40
2018-05-16T09:20:19.875Z,23.60
2018-05-16T09:21:23.223Z,29.08
2018-05-16T09:22:25.756Z,53.97
2018-05-16T09:23:28.287Z,71.05
2018-05-16T09:24:30.825Z,25.95
2018-05-16T09:25:33.356Z,23.05
2018-05-16T09:26:35.913Z,24.20
2018-05-16T09:27:38.442Z,28.83
2018-05-16T09:28:40.981Z,23.90
2018-05-16T09:29:43.507Z,25.10
2018-05-16T09:30:46.075Z,21.45
2018-05-16T09:31:48.651Z,25.48
2018-05-16T09:32:51.195Z,20.00
2018-05-16T09:33:54.497Z,24.40
2018-05-16T09:34:57.029Z,23.73
2018-05-16T09:35:59.557Z,24.73
2018-05-16T09:37:02.118Z,23.62
2018-05-16T09:38:04.649Z,39.28
2018-05-16T09:39:07.948Z,24.63
2018-05-16T09:40:10.494Z,31.45
2018-05-16T09:41:13.793Z,22.17
2018-05-16T09:42:16.358Z,22.90
2018-05-16T09:43:18.926Z,26.80
2018-05-16T09:44:21.476Z,20.65
2018-05-16T09:45:24.772Z,18.60
2018-05-16T09:46:28.070Z,21.08
2018-05-16T09:47:30.603Z,20.77
2018-05-16T09:48:33.932Z,23.38
2018-05-16T09:49:36.467Z,37.60
2018-05-16T09:50:39.774Z,30.23
2018-05-16T09:51:42.319Z,22.75
2018-05-16T09:52:45.625Z,24.37
2018-05-16T09:53:48.203Z,23.27
2018-05-16T09:54:50.732Z,25.15
2018-05-16T09:55:54.036Z,23.65
2018-05-16T09:56:56.569Z,22.50
2018-05-16T09:57:59.096Z,19.52
2018-05-16T09:59:01.659Z,18.35
2018-05-16T10:00:04.190Z,26.73
2018-05-16T10:01:07.499Z,19.58
2018-05-16T10:02:10.026Z,24.08
2018-05-16T10:03:13.320Z,19.27
2018-05-16T10:04:15.876Z,18.85
2018-05-16T10:05:18.467Z,26.05
2018-05-16T10:06:20.996Z,20.45
2018-05-16T10:07:23.525Z,21.25
2018-05-16T10:08:26.064Z,21.05
2018-05-16T10:09:28.625Z,22.25
2018-05-16T10:10:31.175Z,20.35
2018-05-16T10:11:34.473Z,23.70
2018-05-16T10:12:37.784Z,20.58
2018-05-16T10:13:40.314Z,24.17
2018-05-16T10:14:43.656Z,21.17
2018-05-16T10:15:46.176Z,22.58
2018-05-16T10:16:48.724Z,21.12
2018-05-16T10:17:52.039Z,22.92
2018-05-16T10:18:54.581Z,24.10
2018-05-16T10:19:57.925Z,26.20
2018-05-16T10:21:00.463Z,26.83
2018-05-16T10:22:02.989Z,26.40
2018-05-16T10:23:06.280Z,22.33
2018-05-16T10:24:09.585Z,22.42
2018-05-16T10:25:12.151Z,22.13
2018-05-16T10:26:14.747Z,24.27
2018-05-16T10:27:18.000Z,22.75
2018-05-16T10:28:20.539Z,22.75
2018-05-16T10:29:23.076Z,23.65
2018-05-16T10:30:25.644Z,27.30
2018-05-16T10:31:28.177Z,20.08
2018-05-16T10:32:30.708Z,27.25
2018-05-16T10:33:34.013Z,24.25
2018-05-16T10:34:36.640Z,23.80
2018-05-16T10:35:39.127Z,21.40
2018-05-16T10:36:42.453Z,20.37
2018-05-16T10:37:44.987Z,22.20
2018-05-16T10:38:48.267Z,22.87
2018-05-16T10:39:51.559Z,18.62
2018-05-16T10:40:54.858Z,24.90
2018-05-16T10:41:57.417Z,22.85
2018-05-16T10:42:59.949Z,22.00
2018-05-16T10:44:02.481Z,23.00
2018-05-16T10:45:05.010Z,20.52
2018-05-16T10:46:07.538Z,27.60
2018-05-16T10:47:10.104Z,23.40
2018-05-16T10:48:12.643Z,111.22
2018-05-16T10:49:15.202Z,24.20
2018-05-16T10:50:17.737Z,53.17
2018-05-16T10:51:21.023Z,25.15
2018-05-16T10:52:23.547Z,46.70
2018-05-16T10:53:26.075Z,53.22
2018-05-16T10:54:28.656Z,23.08
2018-05-16T10:55:31.181Z,27.10
2018-05-16T10:56:34.476Z,22.98
2018-05-16T10:57:37.007Z,23.33
2018-05-16T10:58:39.540Z,24.70
2018-05-16T10:59:42.103Z,20.60
2018-05-16T11:00:44.664Z,18.90
2018-05-16T11:01:47.191Z,21.23
2018-05-16T11:02:50.485Z,23.05
2018-05-16T11:03:53.032Z,17.92
2018-05-16T11:04:55.593Z,21.02
2018-05-16T11:05:58.124Z,21.98
2018-05-16T11:07:00.682Z,20.55
2018-05-16T11:08:03.215Z,18.67
2018-05-16T11:09:06.505Z,16.70
2018-05-16T11:10:09.836Z,16.08
2018-05-16T11:11:12.358Z,17.50
2018-05-16T11:12:14.879Z,19.95
2018-05-16T11:13:17.413Z,26.48
2018-05-16T11:14:19.952Z,19.85
2018-05-16T11:15:23.282Z,18.50
2018-05-16T11:16:25.808Z,31.12
2018-05-16T11:17:28.340Z,27.10
2018-05-16T11:18:30.888Z,33.88
2018-05-16T11:19:33.412Z,19.10
2018-05-16T11:20:36.051Z,21.30
2018-05-16T11:21:38.656Z,22.60
2018-05-16T11:22:41.222Z,20.98
2018-05-16T11:23:43.757Z,20.05
2018-05-16T11:24:47.088Z,21.52
2018-05-16T11:25:49.630Z,22.00
2018-05-16T11:26:52.157Z,22.60
2018-05-16T11:27:54.684Z,20.50
2018-05-16T11:28:57.224Z,17.17
2018-05-16T11:29:59.784Z,19.15
2018-05-16T11:31:03.105Z,25.70
2018-05-16T11:32:05.627Z,19.23
2018-05-16T11:33:08.920Z,17.12
2018-05-16T11:34:11.491Z,18.25
2018-05-16T11:35:14.056Z,16.17
2018-05-16T11:36:16.592Z,15.48
2018-05-16T11:37:19.137Z,16.00
2018-05-16T11:38:21.671Z,17.62
2018-05-16T11:39:24.200Z,21.37
2018-05-16T11:40:27.540Z,18.90
2018-05-16T11:41:30.065Z,16.77
2018-05-16T11:42:33.359Z,15.15
2018-05-16T11:43:35.914Z,19.23
2018-05-16T11:44:39.211Z,18.92
2018-05-16T11:45:41.768Z,14.13
2018-05-16T11:46:44.296Z,19.50
2018-05-16T11:47:46.822Z,22.48
2018-05-16T11:48:49.391Z,14.52
2018-05-16T11:49:51.952Z,17.87
2018-05-16T11:50:54.489Z,15.27
2018-05-16T11:51:57.837Z,22.52
2018-05-16T11:53:00.382Z,17.90
2018-05-16T11:54:03.145Z,15.32
2018-05-16T11:55:06.965Z,14.48
2018-05-16T11:56:10.258Z,20.52
2018-05-16T11:57:12.891Z,15.57
2018-05-16T11:58:15.419Z,19.87
2018-05-16T11:59:17.976Z,14.38
2018-05-16T12:00:20.511Z,19.60
2018-05-16T12:01:23.043Z,17.80
2018-05-16T12:02:25.695Z,17.15
2018-05-16T12:03:28.992Z,13.27
2018-05-16T12:04:31.524Z,16.67
2018-05-16T12:05:34.065Z,15.05
2018-05-16T12:06:36.592Z,14.80
2018-05-16T12:07:39.150Z,12.10
2018-05-16T12:08:42.454Z,16.92
2018-05-16T12:09:45.016Z,15.75
2018-05-16T12:10:47.541Z,15.25
2018-05-16T12:11:50.073Z,15.55
2018-05-16T12:12:52.607Z,14.65
2018-05-16T12:13:55.137Z,14.27
2018-05-16T12:14:57.747Z,13.98
2018-05-16T12:16:01.050Z,14.85
2018-05-16T12:17:03.588Z,17.20
2018-05-16T12:18:06.115Z,18.23
2018-05-16T12:19:08.640Z,12.50
2018-05-16T12:20:11.221Z,16.45
2018-05-16T12:21:13.752Z,15.88
2018-05-16T12:22:16.289Z,15.10
2018-05-16T12:23:18.815Z,23.27
2018-05-16T12:24:21.336Z,16.33
2018-05-16T12:25:24.672Z,23.90
2018-05-16T12:26:27.205Z,13.52
2018-05-16T12:27:29.736Z,13.50
2018-05-16T12:28:32.268Z,12.50
2018-05-16T12:29:34.801Z,16.60
2018-05-16T12:30:37.366Z,12.25
2018-05-16T12:31:39.943Z,11.40
2018-05-16T12:32:42.953Z,13.77
2018-05-16T12:33:45.485Z,12.25
2018-05-16T12:34:48.011Z,14.70
2018-05-16T12:35:50.577Z,15.60
2018-05-16T12:36:53.107Z,13.60
2018-05-16T12:37:55.683Z,15.88
2018-05-16T12:38:58.209Z,14.55
2018-05-16T12:40:00.740Z,15.60
2018-05-16T12:41:03.279Z,10.98
2018-05-16T12:42:05.805Z,18.27
2018-05-16T12:43:17.146Z,15.85
2018-05-16T12:44:19.666Z,18.98
2018-05-16T12:45:22.184Z,19.55
2018-05-16T12:46:24.712Z,12.37
2018-05-16T12:47:27.228Z,11.60
2018-05-16T12:48:30.563Z,9.43
2018-05-16T12:49:33.101Z,12.27
2018-05-16T12:50:35.621Z,8.82
2018-05-16T12:51:38.145Z,10.93
2018-05-16T12:52:40.669Z,8.40
2018-05-16T12:53:44.001Z,18.98
2018-05-16T12:54:46.530Z,11.00
2018-05-16T12:55:49.936Z,9.60
2018-05-16T12:56:52.393Z,10.10
2018-05-16T12:57:54.916Z,10.77
2018-05-16T12:58:57.484Z,14.82
2018-05-16T13:00:00.110Z,10.20
2018-05-16T13:01:02.631Z,10.02
2018-05-16T13:02:05.165Z,9.35
2018-05-16T13:03:07.736Z,12.90
2018-05-16T13:04:10.303Z,15.32
2018-05-16T13:05:12.824Z,8.60
2018-05-16T13:06:15.345Z,10.73
2018-05-16T13:07:17.870Z,9.52
2018-05-16T13:08:20.399Z,13.50
2018-05-16T13:09:23.821Z,9.68
2018-05-16T13:10:26.343Z,9.57
2018-05-16T13:11:28.907Z,13.60
2018-05-16T13:12:31.403Z,12.05
2018-05-16T13:13:33.923Z,11.73
2018-05-16T13:14:36.492Z,9.68
2018-05-16T13:15:39.017Z,8.02
2018-05-16T13:16:41.545Z,7.32
2018-05-16T13:17:44.091Z,9.95
2018-05-16T13:18:46.608Z,9.23
2018-05-16T13:19:49.185Z,12.15
2018-05-16T13:20:51.708Z,8.50
2018-05-16T13:21:55.011Z,9.05
2018-05-16T13:22:58.308Z,7.93
2018-05-16T13:24:00.840Z,13.57
2018-05-16T13:25:03.420Z,8.60
2018-05-16T13:26:06.719Z,15.00
2018-05-16T13:27:09.245Z,9.27
2018-05-16T13:28:11.782Z,9.98
2018-05-16T13:29:14.307Z,14.98
2018-05-16T13:30:17.625Z,12.37
2018-05-16T13:31:20.209Z,10.93
2018-05-16T13:32:22.730Z,10.00